Time;durP1;ratioP1;P1;durP2;ratioP2;P2;SDS_P1;SDS_P2;PMS_P1;PMS_P2;Temp;Humidity;BMP_temperature;BMP_pressure;BME280_temperature;BME280_humidity;BME280_pressure;Samples;Min_cycle;Max_cycle;Signal;HPM_P1;HPM_P2
2022/07/20 00:01:59;;;;;;;5.22;3.85;;;25.60;41.80;;;;;;5002161;28;20076;-50
2022/07/20 00:04:26;;;;;;;9.85;4.82;;;25.50;41.90;;;;;;5010180;28;20046;-48
2022/07/20 00:06:54;;;;;;;6.70;3.58;;;25.50;42.00;;;;;;5010921;28;20072;-48
2022/07/20 00:12:11;;;;;;;9.25;4.07;;;25.40;42.20;;;;;;5008868;28;20099;-48
2022/07/20 00:14:40;;;;;;;7.20;3.47;;;25.40;42.20;;;;;;5011465;28;20494;-51
2022/07/20 00:17:08;;;;;;;9.63;4.10;;;25.30;42.20;;;;;;5003453;28;20042;-49
2022/07/20 00:19:37;;;;;;;7.03;3.80;;;25.30;42.40;;;;;;4999496;28;20041;-49
2022/07/20 00:22:03;;;;;;;6.28;4.30;;;25.20;42.50;;;;;;5010640;28;20045;-50
2022/07/20 00:24:30;;;;;;;7.70;3.55;;;25.20;42.60;;;;;;5006736;28;20034;-49
2022/07/20 00:26:57;;;;;;;8.50;4.30;;;25.20;42.80;;;;;;4983673;28;20574;-49
2022/07/20 00:29:29;;;;;;;10.00;4.00;;;25.10;42.90;;;;;;4991234;28;20045;-50
2022/07/20 00:31:56;;;;;;;7.53;4.20;;;25.10;42.90;;;;;;5010574;28;20034;-48
2022/07/20 00:34:27;;;;;;;4.85;3.80;;;25.00;42.90;;;;;;5007251;28;20065;-48
2022/07/20 00:36:54;;;;;;;8.55;3.80;;;25.00;43.10;;;;;;4994873;28;20113;-50
2022/07/20 00:39:21;;;;;;;6.53;3.92;;;25.00;43.00;;;;;;5010163;28;20073;-49
2022/07/20 00:41:47;;;;;;;9.18;3.97;;;24.90;42.90;;;;;;5010755;28;20485;-49
2022/07/20 00:44:31;;;;;;;7.07;4.10;;;24.90;43.10;;;;;;5002999;28;20069;-48
2022/07/20 00:47:02;;;;;;;6.57;3.80;;;24.90;43.50;;;;;;4993741;28;20034;-49
2022/07/20 00:49:33;;;;;;;8.93;4.82;;;24.80;43.20;;;;;;5010705;28;20034;-49
2022/07/20 00:52:02;;;;;;;5.10;4.22;;;24.70;43.30;;;;;;5010661;28;20038;-49
2022/07/20 00:54:28;;;;;;;6.57;4.13;;;24.70;43.40;;;;;;5003840;28;20435;-47
2022/07/20 00:57:00;;;;;;;6.50;3.63;;;24.70;43.50;;;;;;4989624;28;20042;-49
2022/07/20 00:59:30;;;;;;;4.35;3.53;;;24.70;43.60;;;;;;5009827;28;20105;-48
2022/07/20 01:01:59;;;;;;;6.30;3.97;;;24.60;43.70;;;;;;5010383;28;20569;-48
2022/07/20 01:04:31;;;;;;;6.75;3.55;;;24.60;43.80;;;;;;4997198;28;20074;-49
2022/07/20 01:07:08;;;;;;;5.82;4.07;;;24.50;43.90;;;;;;5003872;28;20034;-49
2022/07/20 01:09:37;;;;;;;8.70;4.20;;;24.50;44.10;;;;;;5010661;28;20073;-48
2022/07/20 01:12:07;;;;;;;8.55;3.70;;;24.50;43.90;;;;;;5009052;28;20100;-47
2022/07/20 01:14:37;;;;;;;6.35;3.92;;;24.50;44.10;;;;;;4998902;28;20257;-49
2022/07/20 01:17:03;;;;;;;6.05;3.22;;;24.40;44.20;;;;;;5008134;28;20050;-47
2022/07/20 01:19:32;;;;;;;8.18;4.90;;;24.40;44.20;;;;;;5010627;28;20053;-49
2022/07/20 01:21:59;;;;;;;9.52;4.60;;;24.50;44.60;;;;;;5006478;28;20056;-48
2022/07/20 01:24:26;;;;;;;8.27;4.30;;;24.40;44.40;;;;;;4991529;28;20042;-50
2022/07/20 01:26:56;;;;;;;6.85;4.00;;;24.40;44.50;;;;;;5006867;28;20451;-48
2022/07/20 01:29:26;;;;;;;5.82;4.25;;;24.30;44.60;;;;;;5010760;28;20046;-49
2022/07/20 01:31:52;;;;;;;5.35;4.18;;;24.30;44.70;;;;;;5006028;28;20108;-49
2022/07/20 01:34:19;;;;;;;8.18;4.68;;;24.20;45.50;;;;;;4992738;28;20121;-51
2022/07/20 01:36:46;;;;;;;6.10;4.28;;;24.20;44.80;;;;;;5010236;28;20050;-49
2022/07/20 01:39:14;;;;;;;10.00;4.20;;;24.20;45.00;;;;;;5009822;28;20092;-48
2022/07/20 01:41:40;;;;;;;7.82;4.13;;;24.10;45.00;;;;;;5000421;28;20038;-49
2022/07/20 01:44:07;;;;;;;7.97;3.75;;;24.10;45.20;;;;;;4998927;28;20074;-50
2022/07/20 01:46:34;;;;;;;8.77;4.70;;;24.10;45.30;;;;;;5013221;28;20045;-50
2022/07/20 01:49:08;;;;;;;;;;;24.10;45.40;;;;;;5008760;28;20046;-50
2022/07/20 01:51:35;;;;;;;4.22;3.88;;;24.10;44.20;;;;;;5002274;28;19984;-49
2022/07/20 01:54:07;;;;;;;8.95;5.10;;;24.00;44.90;;;;;;5013038;28;20054;-49
2022/07/20 01:56:34;;;;;;;7.97;4.43;;;24.00;45.30;;;;;;5013551;28;20461;-51
2022/07/20 01:59:03;;;;;;;7.78;4.60;;;24.00;45.40;;;;;;5007683;28;20118;-48
2022/07/20 02:01:30;;;;;;;8.63;4.85;;;23.90;45.30;;;;;;4992410;28;20037;-49
2022/07/20 02:04:00;;;;;;;6.65;4.38;;;23.90;45.50;;;;;;5012707;28;20122;-51
2022/07/20 02:06:27;;;;;;;6.57;4.95;;;23.90;45.60;;;;;;5013169;28;20088;-47
2022/07/20 02:08:58;;;;;;;8.23;4.82;;;23.90;45.60;;;;;;4997687;28;20042;-49
2022/07/20 02:11:25;;;;;;;7.60;5.20;;;23.90;46.20;;;;;;5009505;28;20172;-51
2022/07/20 02:13:52;;;;;;;7.82;4.35;;;23.90;45.90;;;;;;5013469;28;20080;-49
2022/07/20 02:16:21;;;;;;;4.68;3.97;;;23.80;46.10;;;;;;5008896;28;20046;-49
2022/07/20 02:18:55;;;;;;;14.75;5.63;;;23.80;46.10;;;;;;4994868;28;20050;-49
2022/07/20 02:21:23;;;;;;;6.40;4.57;;;23.80;46.10;;;;;;5000004;28;20045;-48
2022/07/20 02:23:57;;;;;;;5.57;4.00;;;23.80;46.00;;;;;;5013254;28;20037;-48
2022/07/20 02:26:24;;;;;;;7.15;4.35;;;23.80;44.40;;;;;;4993575;28;20046;-50
2022/07/20 02:28:59;;;;;;;9.18;4.65;;;23.80;45.00;;;;;;4994769;28;20037;-48
2022/07/20 02:31:25;;;;;;;4.43;3.47;;;23.90;43.50;;;;;;5005391;28;20034;-48
2022/07/20 02:34:01;;;;;;;7.88;3.55;;;23.90;43.10;;;;;;5011640;28;20149;-50
2022/07/20 02:36:30;;;;;;;4.25;3.60;;;24.00;42.60;;;;;;5004259;28;20054;-47
2022/07/20 02:38:59;;;;;;;7.25;4.05;;;24.20;43.40;;;;;;4990768;28;20552;-49
2022/07/20 02:41:29;;;;;;;5.55;3.40;;;24.20;43.70;;;;;;5008251;28;20042;-49
2022/07/20 02:43:56;;;;;;;4.78;3.28;;;24.30;43.80;;;;;;5012864;28;20045;-48
2022/07/20 02:46:24;;;;;;;4.55;3.30;;;24.40;44.00;;;;;;4997020;28;20043;-49
2022/07/20 02:48:52;;;;;;;4.53;3.45;;;24.50;44.10;;;;;;5002971;28;20049;-50
2022/07/20 02:51:19;;;;;;;3.83;3.30;;;24.50;44.10;;;;;;4996682;28;20041;-50
2022/07/20 02:53:46;;;;;;;3.97;3.65;;;24.50;44.00;;;;;;5012536;28;20042;-49
2022/07/20 02:56:20;;;;;;;4.85;3.72;;;24.50;44.10;;;;;;4989206;28;20157;-50
2022/07/20 02:58:53;;;;;;;4.88;3.40;;;24.50;44.10;;;;;;4992554;28;20046;-48
2022/07/20 03:01:23;;;;;;;4.55;3.40;;;24.50;44.10;;;;;;4996543;28;20038;-47
2022/07/20 03:03:49;;;;;;;5.35;3.33;;;24.40;43.80;;;;;;5012531;28;20042;-48
2022/07/20 03:06:20;;;;;;;4.13;3.45;;;24.40;44.00;;;;;;5005609;28;20092;-49
2022/07/20 03:08:46;;;;;;;4.53;4.07;;;24.40;44.20;;;;;;4999215;28;20530;-49
2022/07/20 03:11:14;;;;;;;4.60;3.22;;;24.30;44.20;;;;;;5012064;28;20050;-48
2022/07/20 03:13:44;;;;;;;4.10;3.20;;;24.30;44.20;;;;;;5009296;28;20487;-47
2022/07/20 03:16:16;;;;;;;6.00;3.80;;;24.20;44.40;;;;;;4992162;28;20042;-47
2022/07/20 03:18:43;;;;;;;7.45;3.63;;;24.20;44.80;;;;;;5011770;28;20048;-50
2022/07/20 03:21:12;;;;;;;5.00;3.88;;;24.10;44.70;;;;;;5003145;28;20406;-49
2022/07/20 03:23:38;;;;;;;4.05;3.35;;;24.10;45.00;;;;;;4990446;28;20546;-48
2022/07/20 03:26:05;;;;;;;5.00;4.05;;;24.10;45.20;;;;;;4995140;28;20047;-48
2022/07/20 03:28:35;;;;;;;5.10;3.45;;;24.00;45.50;;;;;;5012832;28;20034;-48
2022/07/20 03:31:03;;;;;;;6.35;3.45;;;23.90;45.60;;;;;;5010447;28;20038;-48
2022/07/20 03:33:32;;;;;;;5.57;3.47;;;23.90;46.30;;;;;;4986164;28;20062;-51
2022/07/20 03:35:59;;;;;;;4.10;3.42;;;23.90;45.70;;;;;;4990354;28;20046;-49
2022/07/20 03:38:29;;;;;;;4.32;3.55;;;23.80;45.70;;;;;;4983708;28;20039;-50
2022/07/20 03:41:08;;;;;;;6.35;3.63;;;23.70;44.30;;;;;;4979873;28;20051;-48
2022/07/20 03:43:36;;;;;;;5.40;4.13;;;23.70;43.30;;;;;;4980665;28;20084;-47
2022/07/20 03:46:03;;;;;;;5.80;3.85;;;23.80;42.80;;;;;;5005539;28;20483;-49
2022/07/20 03:48:30;;;;;;;7.40;4.70;;;23.80;43.20;;;;;;5012081;28;20046;-51
2022/07/20 03:51:01;;;;;;;5.72;3.92;;;24.00;42.60;;;;;;5010485;28;20403;-48
2022/07/20 03:53:30;;;;;;;4.88;4.05;;;24.10;42.40;;;;;;4987922;28;20042;-52
2022/07/20 03:55:57;;;;;;;7.65;4.80;;;24.20;42.10;;;;;;4995036;28;20034;-50
2022/07/20 03:58:25;;;;;;;8.00;5.60;;;24.30;41.90;;;;;;4989035;28;20042;-51
2022/07/20 04:00:55;;;;;;;6.45;5.28;;;24.50;41.60;;;;;;4980804;28;20035;-52
2022/07/20 04:03:25;;;;;;;5.50;4.97;;;24.60;41.40;;;;;;4990165;28;20399;-48
2022/07/20 04:05:57;;;;;;;7.63;5.45;;;24.70;41.30;;;;;;4988566;28;20035;-51
2022/07/20 04:08:24;;;;;;;10.57;5.72;;;24.90;41.40;;;;;;4985947;28;20101;-51
2022/07/20 04:10:52;;;;;;;6.60;5.78;;;25.00;41.20;;;;;;4980014;28;20042;-50
2022/07/20 04:13:21;;;;;;;10.52;6.55;;;25.00;41.20;;;;;;4989321;28;20073;-49
2022/07/20 04:15:48;;;;;;;7.75;5.68;;;25.10;41.20;;;;;;5006004;28;20513;-48
2022/07/20 04:18:16;;;;;;;7.47;6.78;;;25.20;41.40;;;;;;5011906;28;20506;-48
2022/07/20 04:20:43;;;;;;;8.15;6.63;;;25.20;41.20;;;;;;5006059;28;20036;-51
2022/07/20 04:23:11;;;;;;;10.85;6.65;;;25.30;41.40;;;;;;5000966;28;20182;-48
2022/07/20 04:25:43;;;;;;;8.52;7.28;;;25.30;41.40;;;;;;5011406;28;20109;-49
2022/07/20 04:28:09;;;;;;;10.68;7.40;;;25.40;41.50;;;;;;5000415;28;20582;-49
2022/07/20 04:30:39;;;;;;;9.05;8.07;;;25.40;41.40;;;;;;4985657;28;20118;-50
2022/07/20 04:33:07;;;;;;;8.50;7.47;;;25.40;41.70;;;;;;5008441;28;20045;-48
2022/07/20 04:35:40;;;;;;;8.52;7.57;;;25.40;41.70;;;;;;5011229;28;20056;-52
2022/07/20 04:38:17;;;;;;;11.63;8.30;;;25.40;42.20;;;;;;4994467;28;20072;-51
2022/07/20 04:40:44;;;;;;;12.90;8.73;;;25.50;42.10;;;;;;4996134;28;20117;-52
2022/07/20 04:43:11;;;;;;;10.43;8.73;;;25.50;42.90;;;;;;5000825;28;20054;-52
2022/07/20 04:45:38;;;;;;;11.00;9.30;;;25.50;44.00;;;;;;4990776;28;20038;-51
2022/07/20 04:48:05;;;;;;;10.85;9.77;;;25.50;43.30;;;;;;4988691;28;20042;-52
2022/07/20 04:50:31;;;;;;;12.90;10.85;;;25.50;43.40;;;;;;4989378;28;20052;-50
2022/07/20 04:52:58;;;;;;;14.70;11.18;;;25.50;44.00;;;;;;5005141;28;20100;-50
2022/07/20 04:55:25;;;;;;;14.85;11.07;;;25.50;44.00;;;;;;5008951;28;20042;-52
2022/07/20 04:57:52;;;;;;;14.85;11.07;;;25.50;44.00;;;;;;4987442;28;20644;-51
2022/07/20 05:00:18;;;;;;;12.95;11.57;;;25.50;45.20;;;;;;4981006;28;20157;-50
2022/07/20 05:02:45;;;;;;;13.45;12.05;;;25.50;44.60;;;;;;4980047;28;20108;-53
2022/07/20 05:05:12;;;;;;;17.45;12.02;;;25.60;44.90;;;;;;4983599;28;20053;-46
2022/07/20 05:07:38;;;;;;;17.90;12.25;;;25.60;44.70;;;;;;4986316;28;20093;-49
2022/07/20 05:10:05;;;;;;;18.55;13.95;;;25.60;45.00;;;;;;4996128;28;20042;-52
2022/07/20 05:12:32;;;;;;;17.20;12.43;;;25.60;45.00;;;;;;5002908;28;20038;-51
2022/07/20 05:14:59;;;;;;;17.38;13.45;;;25.70;45.20;;;;;;4982149;28;20129;-48
2022/07/20 05:17:26;;;;;;;17.23;13.50;;;25.70;45.40;;;;;;4985448;28;20042;-52
2022/07/20 05:19:53;;;;;;;16.58;14.88;;;25.70;45.50;;;;;;4988142;28;20507;-48
2022/07/20 05:22:19;;;;;;;15.70;13.60;;;25.80;45.70;;;;;;4992513;28;20046;-48
2022/07/20 05:24:46;;;;;;;15.88;14.25;;;25.80;45.70;;;;;;5001059;28;20403;-52
2022/07/20 05:27:13;;;;;;;16.70;14.98;;;25.80;45.80;;;;;;4996520;28;20046;-51
2022/07/20 05:29:39;;;;;;;17.98;15.02;;;25.90;45.90;;;;;;4994822;28;20434;-52
2022/07/20 05:32:08;;;;;;;21.08;16.38;;;25.90;46.00;;;;;;5003241;28;20100;-48
2022/07/20 05:34:34;;;;;;;17.00;14.88;;;26.00;46.10;;;;;;4997537;28;20042;-51
2022/07/20 05:37:01;;;;;;;19.65;16.83;;;26.00;46.10;;;;;;4991776;28;20116;-48
2022/07/20 05:39:28;;;;;;;23.23;16.02;;;26.10;46.40;;;;;;5006302;28;20115;-51
2022/07/20 05:41:55;;;;;;;17.95;15.30;;;26.10;46.30;;;;;;5012264;28;20449;-50
2022/07/20 05:44:22;;;;;;;17.77;14.80;;;26.20;46.40;;;;;;5010954;28;20107;-53
2022/07/20 05:46:48;;;;;;;17.08;15.27;;;26.20;46.60;;;;;;4991364;28;20046;-48
2022/07/20 05:49:15;;;;;;;18.60;15.77;;;26.30;46.90;;;;;;5010733;28;20038;-50
2022/07/20 05:51:42;;;;;;;18.30;16.00;;;26.40;47.40;;;;;;4993217;28;20050;-48
2022/07/20 05:54:09;;;;;;;19.75;16.42;;;26.50;46.80;;;;;;4987758;28;20094;-52
2022/07/20 05:56:35;;;;;;;17.33;15.52;;;26.60;46.70;;;;;;5007272;28;20084;-50
2022/07/20 05:59:02;;;;;;;19.35;16.38;;;26.70;46.80;;;;;;4997014;28;20651;-53
2022/07/20 06:01:29;;;;;;;21.08;18.08;;;26.80;46.70;;;;;;5006836;28;20050;-50
2022/07/20 06:03:57;;;;;;;21.02;16.88;;;26.80;46.50;;;;;;5004335;28;20571;-53
2022/07/20 06:06:24;;;;;;;22.60;16.08;;;26.90;46.40;;;;;;4994041;28;20061;-51
2022/07/20 06:08:51;;;;;;;23.58;18.42;;;27.00;46.70;;;;;;5003748;28;20050;-48
2022/07/20 06:11:37;;;;;;;18.95;15.52;;;27.10;46.60;;;;;;4972392;28;20559;-50
2022/07/20 06:14:04;;;;;;;20.42;16.00;;;27.10;46.40;;;;;;4975614;28;20051;-50
2022/07/20 06:16:31;;;;;;;18.02;16.05;;;27.20;46.50;;;;;;5000468;28;20511;-49
2022/07/20 06:18:58;;;;;;;20.73;17.40;;;27.20;46.60;;;;;;5003946;28;20046;-51
2022/07/20 06:21:24;;;;;;;23.38;18.10;;;27.30;46.50;;;;;;4998580;28;20034;-53
2022/07/20 06:23:51;;;;;;;22.50;17.42;;;27.30;46.50;;;;;;4993635;28;20038;-51
2022/07/20 06:26:18;;;;;;;20.15;16.73;;;27.40;46.60;;;;;;5039238;23;20048;-49
2022/07/20 06:28:45;;;;;;;23.55;17.35;;;27.40;46.70;;;;;;5027570;28;20084;-48
2022/07/20 06:31:12;;;;;;;21.88;16.80;;;27.50;46.70;;;;;;5027502;28;20617;-47
2022/07/20 06:33:39;;;;;;;21.80;16.67;;;27.60;46.40;;;;;;5028175;28;20033;-47
2022/07/20 06:36:06;;;;;;;19.92;16.30;;;27.70;46.30;;;;;;5032691;28;20061;-48
2022/07/20 06:38:34;;;;;;;19.70;16.38;;;27.80;45.70;;;;;;5027235;28;20041;-48
2022/07/20 06:41:03;;;;;;;18.00;15.68;;;27.90;45.90;;;;;;5028713;28;20049;-47
2022/07/20 06:43:30;;;;;;;20.05;16.85;;;28.00;45.70;;;;;;5027983;28;20034;-48
2022/07/20 06:45:57;;;;;;;19.50;17.50;;;28.10;45.40;;;;;;5032817;28;20512;-48
2022/07/20 06:48:26;;;;;;;18.02;16.10;;;28.10;45.00;;;;;;5028074;28;20042;-47
2022/07/20 06:50:53;;;;;;;19.63;16.30;;;28.30;44.90;;;;;;5032602;28;20071;-47
2022/07/20 06:53:20;;;;;;;21.48;16.40;;;28.30;44.60;;;;;;5032777;28;20045;-48
2022/07/20 06:55:47;;;;;;;17.70;15.82;;;28.30;44.50;;;;;;5030459;28;20107;-48
2022/07/20 06:58:14;;;;;;;22.25;16.17;;;28.40;44.50;;;;;;5029312;28;20049;-47
2022/07/20 07:00:42;;;;;;;18.27;16.38;;;28.40;44.40;;;;;;5027248;28;20430;-47
2022/07/20 07:03:09;;;;;;;20.92;16.50;;;28.40;44.30;;;;;;5031090;28;20072;-49
2022/07/20 07:05:36;;;;;;;22.95;16.73;;;28.50;44.20;;;;;;5032164;28;20049;-48
2022/07/20 07:08:03;;;;;;;20.60;16.17;;;28.50;44.50;;;;;;5031153;28;20650;-53
2022/07/20 07:10:29;;;;;;;21.60;16.67;;;28.40;44.70;;;;;;5028011;28;20383;-51
2022/07/20 07:12:56;;;;;;;19.65;15.70;;;28.40;46.00;;;;;;5031689;28;20456;-52
2022/07/20 07:15:23;;;;;;;24.50;16.17;;;28.40;47.30;;;;;;5032422;28;20072;-48
2022/07/20 07:17:52;;;;;;;18.75;15.75;;;28.40;46.60;;;;;;5024891;28;20049;-50
2022/07/20 07:20:19;;;;;;;23.40;16.15;;;28.30;47.50;;;;;;5027037;28;20120;-52
2022/07/20 07:22:51;;;;;;;;;;;28.30;46.70;;;;;;5027443;28;20106;-49
2022/07/20 07:25:17;;;;;;;21.20;15.82;;;28.30;45.60;;;;;;5012894;28;19952;-48
2022/07/20 07:27:44;;;;;;;28.17;17.23;;;28.10;47.00;;;;;;5031489;28;20038;-49
2022/07/20 07:30:13;;;;;;;17.20;14.80;;;28.10;50.30;;;;;;5032000;28;20120;-50
2022/07/20 07:32:40;;;;;;;17.20;15.32;;;27.90;49.30;;;;;;5030219;28;20072;-48
2022/07/20 07:35:07;;;;;;;19.55;16.15;;;27.80;49.10;;;;;;5031782;28;20147;-49
2022/07/20 07:37:39;;;;;;;19.77;17.13;;;27.60;50.00;;;;;;5029542;28;20410;-51
2022/07/20 07:40:06;;;;;;;17.60;15.68;;;27.50;50.60;;;;;;5030463;28;20044;-48
2022/07/20 07:42:33;;;;;;;18.67;16.80;;;27.30;51.30;;;;;;5031308;28;20052;-51
2022/07/20 07:45:04;;;;;;;19.98;17.35;;;27.20;53.50;;;;;;5027291;28;20402;-50
2022/07/20 07:47:31;;;;;;;17.67;15.88;;;27.20;54.60;;;;;;5030937;28;20037;-47
2022/07/20 07:49:58;;;;;;;20.45;16.05;;;27.10;55.00;;;;;;5031939;28;20068;-51
2022/07/20 07:52:24;;;;;;;18.15;16.30;;;27.20;55.40;;;;;;5028447;28;20037;-49
2022/07/20 07:54:52;;;;;;;18.02;16.23;;;27.20;54.60;;;;;;5028725;28;20064;-47
2022/07/20 07:57:18;;;;;;;17.20;15.40;;;27.20;53.40;;;;;;5025992;28;20049;-50
2022/07/20 07:59:45;;;;;;;17.95;15.70;;;27.20;52.50;;;;;;5031416;28;20042;-48
2022/07/20 08:02:12;;;;;;;16.58;14.43;;;27.30;51.40;;;;;;5030816;28;20095;-48
2022/07/20 08:04:39;;;;;;;16.58;14.90;;;27.30;52.30;;;;;;5030867;28;20045;-50
2022/07/20 08:07:05;;;;;;;18.80;16.83;;;27.30;51.50;;;;;;5025105;28;20490;-48
2022/07/20 08:09:32;;;;;;;19.85;16.33;;;27.30;50.80;;;;;;5031259;28;20101;-47
2022/07/20 08:11:59;;;;;;;17.63;15.77;;;27.30;52.10;;;;;;5030621;28;20042;-52
2022/07/20 08:14:26;;;;;;;18.35;15.73;;;27.30;52.00;;;;;;5028136;28;20041;-50
2022/07/20 08:16:53;;;;;;;19.50;15.75;;;27.40;52.10;;;;;;5028263;28;20525;-47
2022/07/20 08:19:20;;;;;;;21.63;16.75;;;27.40;51.70;;;;;;5023295;28;20037;-50
2022/07/20 08:21:47;;;;;;;21.77;16.17;;;27.40;50.40;;;;;;5030089;28;20080;-47
2022/07/20 08:24:18;;;;;;;18.48;15.02;;;27.50;50.70;;;;;;5028262;28;20072;-48
2022/07/20 08:26:47;;;;;;;21.83;15.27;;;27.50;50.20;;;;;;5026583;28;20409;-47
2022/07/20 08:29:14;;;;;;;16.75;14.85;;;27.50;50.70;;;;;;5028981;28;20045;-49
2022/07/20 08:31:41;;;;;;;19.63;15.25;;;27.60;50.60;;;;;;5029372;28;20038;-50
2022/07/20 08:34:08;;;;;;;16.92;14.43;;;27.60;49.90;;;;;;5023317;28;20045;-48
2022/07/20 08:36:35;;;;;;;17.45;14.43;;;27.70;49.50;;;;;;5027055;28;20516;-48
2022/07/20 08:39:01;;;;;;;19.17;15.23;;;27.80;49.10;;;;;;5030574;28;20068;-50
2022/07/20 08:41:32;;;;;;;14.10;12.60;;;27.90;49.90;;;;;;5030410;28;20128;-48
2022/07/20 08:43:58;;;;;;;12.98;11.70;;;28.00;49.20;;;;;;5027435;28;20037;-48
2022/07/20 08:46:29;;;;;;;14.75;12.07;;;28.10;48.60;;;;;;5028102;28;20048;-50
2022/07/20 08:48:56;;;;;;;14.80;11.95;;;28.20;48.10;;;;;;5029412;28;20091;-50
2022/07/20 08:51:24;;;;;;;15.55;13.85;;;28.40;48.10;;;;;;5026636;28;20065;-48
2022/07/20 08:53:52;;;;;;;17.42;13.40;;;28.50;47.60;;;;;;5025543;28;20402;-48
2022/07/20 08:56:19;;;;;;;13.52;12.00;;;28.60;47.70;;;;;;5027813;28;20075;-48
2022/07/20 08:58:46;;;;;;;14.20;12.70;;;28.70;47.60;;;;;;5028716;28;20048;-52
2022/07/20 09:01:18;;;;;;;14.43;12.77;;;28.90;46.60;;;;;;5028631;28;20100;-49
2022/07/20 09:04:04;;;;;;;;;;;29.00;46.60;;;;;;5025860;28;20051;-51
2022/07/20 09:06:46;;;;;;;13.27;11.73;;;29.20;46.40;;;;;;5028380;28;20405;-48
2022/07/20 09:09:13;;;;;;;14.00;12.60;;;29.30;45.70;;;;;;5027768;28;20560;-48
2022/07/20 09:11:41;;;;;;;13.60;11.05;;;29.50;45.40;;;;;;5024975;28;20515;-48
2022/07/20 09:14:08;;;;;;;12.95;11.70;;;29.60;45.10;;;;;;5029095;28;20038;-51
2022/07/20 09:16:43;;;;;;;13.40;11.98;;;29.70;44.50;;;;;;5028911;28;20502;-48
2022/07/20 09:19:10;;;;;;;13.23;11.35;;;29.80;45.00;;;;;;5024960;28;20057;-48
2022/07/20 09:21:40;;;;;;;13.63;11.98;;;29.90;44.50;;;;;;5018979;28;20521;-48
2022/07/20 09:24:09;;;;;;;12.50;10.80;;;29.90;44.00;;;;;;5029051;28;20786;-50
2022/07/20 09:26:39;;;;;;;11.73;10.52;;;30.00;43.70;;;;;;5026283;28;20378;-49
2022/07/20 09:29:06;;;;;;;11.98;9.48;;;30.00;44.00;;;;;;5027762;28;20099;-48
2022/07/20 09:31:36;;;;;;;14.93;9.65;;;30.10;44.30;;;;;;5027459;28;20095;-50
2022/07/20 09:34:08;;;;;;;9.82;8.88;;;30.10;42.80;;;;;;5028770;28;20048;-49
2022/07/20 09:36:41;;;;;;;9.75;8.52;;;30.20;42.60;;;;;;5026569;28;20407;-51
2022/07/20 09:39:13;;;;;;;10.77;8.52;;;30.20;42.50;;;;;;5029269;28;20120;-48
2022/07/20 09:41:43;;;;;;;10.80;8.75;;;30.30;42.20;;;;;;5025604;28;20029;-48
2022/07/20 09:44:19;;;;;;;9.80;8.40;;;30.30;42.40;;;;;;5028951;28;20045;-50
2022/07/20 09:46:46;;;;;;;10.48;8.48;;;30.30;42.20;;;;;;5011587;28;20045;-51
2022/07/20 09:49:13;;;;;;;9.27;8.43;;;30.40;42.30;;;;;;5024203;28;20050;-49
2022/07/20 09:51:45;;;;;;;9.23;8.43;;;30.50;42.50;;;;;;5026446;28;20041;-51
2022/07/20 09:54:15;;;;;;;13.43;8.73;;;30.50;41.70;;;;;;5026554;28;20042;-48
2022/07/20 09:56:48;;;;;;;9.05;8.18;;;30.60;42.10;;;;;;5026660;28;20046;-48
2022/07/20 09:59:17;;;;;;;9.82;8.82;;;30.60;41.90;;;;;;5028843;28;20111;-51
2022/07/20 10:01:48;;;;;;;9.57;8.50;;;30.70;41.60;;;;;;5023612;28;20128;-49
2022/07/20 10:04:17;;;;;;;9.45;8.50;;;30.70;41.20;;;;;;5031098;28;20394;-48
2022/07/20 10:06:47;;;;;;;8.80;7.97;;;30.80;42.00;;;;;;5030350;28;20046;-49
2022/07/20 10:09:15;;;;;;;8.75;7.82;;;30.70;41.70;;;;;;5027664;28;20048;-52
2022/07/20 10:11:42;;;;;;;8.35;7.55;;;30.70;41.40;;;;;;5030085;28;20531;-52
2022/07/20 10:14:10;;;;;;;8.02;7.07;;;30.70;41.40;;;;;;5030241;28;20497;-49
2022/07/20 10:16:52;;;;;;;8.75;7.53;;;30.70;41.10;;;;;;5026369;28;20045;-51
2022/07/20 10:19:21;;;;;;;8.32;7.63;;;30.70;40.10;;;;;;5029112;28;20080;-51
2022/07/20 10:21:53;;;;;;;11.48;7.43;;;30.70;40.60;;;;;;5031161;28;20045;-47
2022/07/20 10:24:30;;;;;;;8.95;6.97;;;30.70;40.70;;;;;;5013995;28;20648;-48
2022/07/20 10:27:03;;;;;;;8.50;7.70;;;30.70;40.30;;;;;;5021920;28;20073;-49
2022/07/20 10:29:34;;;;;;;9.18;6.72;;;30.70;39.90;;;;;;5023161;28;20367;-49
2022/07/20 10:32:10;;;;;;;9.50;6.50;;;30.70;40.00;;;;;;5031748;28;20034;-49
2022/07/20 10:34:40;;;;;;;8.52;6.60;;;30.60;39.80;;;;;;5032642;28;20092;-48
2022/07/20 10:37:36;;;;;;;10.30;7.00;;;30.60;40.30;;;;;;5028489;28;20046;-48
2022/07/20 10:40:17;;;;;;;7.60;6.90;;;30.70;40.40;;;;;;5032326;28;20049;-49
2022/07/20 10:43:14;;;;;;;11.85;6.90;;;30.80;40.30;;;;;;5032723;28;20453;-49
2022/07/20 10:45:45;;;;;;;7.75;6.25;;;30.90;40.50;;;;;;5029937;28;20567;-49
2022/07/20 10:48:12;;;;;;;6.77;6.07;;;31.00;39.90;;;;;;5031693;28;20049;-48
2022/07/20 10:50:55;;;;;;;9.10;6.78;;;31.10;39.90;;;;;;5032045;28;20042;-49
2022/07/20 10:53:23;;;;;;;7.97;6.28;;;31.20;39.70;;;;;;5033010;28;20045;-50
2022/07/20 10:55:55;;;;;;;7.07;6.40;;;31.30;39.70;;;;;;5024558;28;20045;-51
2022/07/20 10:58:30;;;;;;;8.20;6.93;;;31.40;39.40;;;;;;5030627;28;20081;-48
2022/07/20 11:01:02;;;;;;;8.35;6.65;;;31.40;39.10;;;;;;5030772;28;20044;-52
2022/07/20 11:03:37;;;;;;;7.95;7.15;;;31.50;38.80;;;;;;5028698;28;20041;-54
2022/07/20 11:06:14;;;;;;;8.27;6.80;;;31.50;39.00;;;;;;5028832;28;20047;-49
2022/07/20 11:08:44;;;;;;;8.63;6.47;;;31.50;38.80;;;;;;5028656;28;20037;-49
2022/07/20 11:11:18;;;;;;;6.88;6.18;;;31.50;38.60;;;;;;5030473;28;20051;-48
2022/07/20 11:13:47;;;;;;;7.78;6.53;;;31.50;39.00;;;;;;5026472;28;20071;-49
2022/07/20 11:16:17;;;;;;;10.23;6.70;;;31.60;39.00;;;;;;5029217;28;20139;-48
2022/07/20 11:18:44;;;;;;;7.40;6.78;;;31.60;39.20;;;;;;5030163;28;20053;-48
2022/07/20 11:21:12;;;;;;;7.45;6.85;;;31.50;39.10;;;;;;5027955;28;20073;-48
2022/07/20 11:23:48;;;;;;;7.80;6.68;;;31.60;39.10;;;;;;5028675;28;20052;-52
2022/07/20 11:26:18;;;;;;;7.53;6.00;;;31.60;39.00;;;;;;5028947;28;20037;-49
2022/07/20 11:28:49;;;;;;;8.38;6.35;;;31.70;39.00;;;;;;5027300;28;20098;-52
2022/07/20 11:31:20;;;;;;;8.38;6.57;;;31.70;38.80;;;;;;5025180;28;20114;-52
2022/07/20 11:33:48;;;;;;;6.72;6.00;;;31.80;38.80;;;;;;5031554;28;20038;-49
2022/07/20 11:36:21;;;;;;;7.22;6.20;;;31.90;38.70;;;;;;5030132;28;20099;-51
2022/07/20 11:38:51;;;;;;;7.47;6.72;;;31.90;38.40;;;;;;5028077;28;20120;-52
2022/07/20 11:41:31;;;;;;;6.72;5.75;;;32.00;38.70;;;;;;5028787;28;20107;-53
2022/07/20 11:43:59;;;;;;;6.80;6.10;;;32.10;38.30;;;;;;5028578;28;20042;-51
2022/07/20 11:46:28;;;;;;;6.80;6.15;;;32.10;38.90;;;;;;5029350;28;20037;-49
2022/07/20 11:49:00;;;;;;;7.50;6.05;;;32.20;38.30;;;;;;5032714;28;20521;-51
2022/07/20 11:51:52;;;;;;;6.00;5.47;;;32.30;37.80;;;;;;5021981;28;20041;-49
2022/07/20 11:54:24;;;;;;;7.55;5.88;;;32.40;38.00;;;;;;5022216;28;20049;-50
2022/07/20 11:56:52;;;;;;;6.03;5.28;;;32.50;38.30;;;;;;5023756;28;20053;-50
2022/07/20 11:59:20;;;;;;;5.70;4.53;;;32.50;37.60;;;;;;5023252;28;20041;-51
2022/07/20 12:01:59;;;;;;;7.25;5.35;;;32.60;37.10;;;;;;5024517;28;20196;-48
2022/07/20 12:04:33;;;;;;;4.80;4.45;;;32.70;36.90;;;;;;5023247;28;20569;-49
2022/07/20 12:07:00;;;;;;;5.50;5.00;;;32.60;37.00;;;;;;5029941;28;20046;-50
2022/07/20 12:09:35;;;;;;;5.72;5.15;;;32.70;36.90;;;;;;5028416;28;20041;-50
2022/07/20 12:12:03;;;;;;;5.43;4.53;;;32.70;36.00;;;;;;5029968;28;20037;-49
2022/07/20 12:14:37;;;;;;;4.78;4.30;;;32.70;36.30;;;;;;5029882;28;20037;-53
2022/07/20 12:17:28;;;;;;;5.03;4.53;;;32.70;36.10;;;;;;5027627;28;20042;-52
2022/07/20 12:19:59;;;;;;;5.30;4.80;;;32.70;36.90;;;;;;5028497;28;20049;-53
2022/07/20 12:22:32;;;;;;;6.85;5.43;;;32.70;36.70;;;;;;5020720;28;20517;-52
2022/07/20 12:25:08;;;;;;;6.13;5.40;;;32.80;36.60;;;;;;5026270;28;20041;-49
2022/07/20 12:27:37;;;;;;;5.75;5.15;;;32.80;36.70;;;;;;5029849;28;20044;-52
2022/07/20 12:30:24;;;;;;;5.97;5.38;;;32.90;36.50;;;;;;5030363;28;20046;-49
2022/07/20 12:33:08;;;;;;;6.82;4.95;;;33.10;36.50;;;;;;5030604;28;20490;-53
2022/07/20 12:35:37;;;;;;;4.70;4.40;;;33.10;36.70;;;;;;5026715;28;20398;-49
2022/07/20 12:38:04;;;;;;;5.05;4.65;;;33.20;36.60;;;;;;5027309;28;20101;-51
2022/07/20 12:40:40;;;;;;;9.35;5.13;;;33.30;36.60;;;;;;5030486;28;20034;-48
2022/07/20 12:43:33;;;;;;;6.75;4.75;;;33.40;36.70;;;;;;5013629;28;20140;-50
2022/07/20 12:46:06;;;;;;;5.35;4.85;;;33.60;36.20;;;;;;5017385;28;20064;-50
2022/07/20 12:48:34;;;;;;;5.90;5.30;;;33.80;36.30;;;;;;5026891;28;20043;-51
2022/07/20 12:51:01;;;;;;;5.78;5.07;;;33.90;35.80;;;;;;5030455;28;20447;-49
2022/07/20 12:53:28;;;;;;;5.90;4.75;;;34.10;35.80;;;;;;5030797;28;20045;-47
2022/07/20 12:55:55;;;;;;;6.13;4.97;;;34.30;36.10;;;;;;5026268;28;20037;-52